Atwood, Illinois
Current Conditions -  °F | °C
As of 1:53 PM on Wednesday 17 Dec 2014 (Local Time) from KCMI Reporting Station
Haze Haze  
Wind Chill: 14°   Ceiling: 1200
Heat Index: 24°   Visibility: 6mi
Dew Point: 19°   Wind: 10mph
Humidity: 81%   Direction: 290°WNW
Pressure: 30.26"   Gusts: NA
Location:  39.8°N, 88.46°W
Report Text: KCMI 171953Z 29009KT 6SM HZ OVC012 M04/M07 A3026 RMK AO2 SLP258 T10441072
Loading
Personal Weather Stations






























Interactive Weather Map New forecast layout! Learn more

10-Day Weather Forecast

Advertisements
Track Severe Weather on mobile